Time;durP1;ratioP1;P1;durP2;ratioP2;P2;SDS_P1;SDS_P2;PMS_P1;PMS_P2;Temp;Humidity;BMP_temperature;BMP_pressure;BME280_temperature;BME280_humidity;BME280_pressure;Samples;Min_cycle;Max_cycle;Signal;HPM_P1;HPM_P2
2022/03/20 00:00:26;;;;;;;7.13;6.43;;;17.90;43.50;18.60;102353.00;;;;4990499;28;20249;-47
2022/03/20 00:02:52;;;;;;;8.17;7.23;;;17.90;43.70;18.60;102351.00;;;;4990326;28;20207;-46
2022/03/20 00:05:19;;;;;;;7.63;6.83;;;17.90;43.50;18.60;102354.00;;;;4990663;28;20181;-48
2022/03/20 00:07:46;;;;;;;8.07;7.30;;;17.90;43.40;18.60;102336.00;;;;4990256;28;20227;-46
2022/03/20 00:10:12;;;;;;;7.90;7.10;;;17.90;43.50;18.60;102337.00;;;;4990067;28;20218;-46
2022/03/20 00:12:39;;;;;;;7.60;6.90;;;17.80;43.30;18.50;102328.00;;;;4990153;28;20173;-46
2022/03/20 00:15:05;;;;;;;7.20;6.50;;;17.80;43.30;18.50;102332.00;;;;4990755;28;20633;-46
2022/03/20 00:17:31;;;;;;;7.20;6.50;;;17.80;43.40;18.50;102324.00;;;;4992202;28;20252;-45
2022/03/20 00:19:57;;;;;;;7.10;6.40;;;17.80;43.60;18.50;102319.00;;;;4990214;28;20181;-46
2022/03/20 00:22:23;;;;;;;6.73;6.13;;;17.80;44.00;18.50;102319.00;;;;4989796;28;20549;-47
2022/03/20 00:24:49;;;;;;;6.27;5.67;;;17.80;44.00;18.50;102313.00;;;;4989428;28;20176;-45
2022/03/20 00:27:15;;;;;;;6.67;5.87;;;17.80;44.10;18.50;102301.00;;;;4988791;28;20201;-46
2022/03/20 00:29:40;;;;;;;6.03;5.53;;;17.80;44.30;18.50;102311.00;;;;4990417;28;20340;-48
2022/03/20 00:32:08;;;;;;;7.53;5.70;;;17.70;44.40;18.50;102288.00;;;;4994978;28;20199;-47
2022/03/20 00:34:34;;;;;;;7.10;6.00;;;17.70;44.50;18.50;102291.00;;;;4996000;28;20246;-45
2022/03/20 00:37:00;;;;;;;6.23;5.73;;;17.70;44.60;18.50;102296.00;;;;4989683;28;20280;-46
2022/03/20 00:39:26;;;;;;;6.43;5.80;;;17.60;44.80;18.50;102288.00;;;;4990055;28;20186;-45
2022/03/20 00:41:51;;;;;;;6.23;5.63;;;17.60;44.80;18.50;102278.00;;;;4989545;28;20172;-45
2022/03/20 00:44:17;;;;;;;6.30;5.70;;;17.70;44.90;18.50;102276.00;;;;4990200;28;20274;-46
2022/03/20 00:46:43;;;;;;;5.83;5.33;;;17.60;44.80;18.50;102281.00;;;;4990036;28;20800;-46
2022/03/20 00:49:09;;;;;;;5.50;5.00;;;17.60;44.90;18.50;102282.00;;;;4990183;28;20302;-47
2022/03/20 00:51:35;;;;;;;6.03;5.50;;;17.60;45.00;18.50;102275.00;;;;4989164;28;20675;-45
2022/03/20 00:54:00;;;;;;;6.00;5.50;;;17.60;45.00;18.50;102255.00;;;;4989479;28;20181;-45
2022/03/20 00:56:26;;;;;;;5.63;5.13;;;17.60;45.10;18.50;102264.00;;;;4989568;28;20187;-46
2022/03/20 00:58:52;;;;;;;6.00;5.50;;;17.60;45.10;18.50;102254.00;;;;4990005;28;20600;-45
2022/03/20 01:01:18;;;;;;;6.00;5.50;;;17.60;45.20;18.50;102245.00;;;;4989094;28;20173;-46
2022/03/20 01:03:44;;;;;;;5.63;5.13;;;17.50;45.10;18.50;102248.00;;;;4988004;28;20236;-46
2022/03/20 01:06:10;;;;;;;5.67;5.17;;;17.50;45.20;18.50;102254.00;;;;4989213;28;20182;-47
2022/03/20 01:08:39;;;;;;;5.67;5.17;;;17.50;45.30;18.40;102245.00;;;;4989320;28;20216;-46
2022/03/20 01:11:06;;;;;;;5.73;5.23;;;17.50;45.30;18.40;102236.00;;;;4989501;28;20212;-46
2022/03/20 01:13:32;;;;;;;5.60;5.10;;;17.40;45.30;18.40;102240.00;;;;4989458;28;20262;-47
2022/03/20 01:15:57;;;;;;;5.53;5.03;;;17.50;45.40;18.40;102243.00;;;;4987502;28;20235;-47
2022/03/20 01:18:24;;;;;;;5.70;5.20;;;17.40;45.40;18.30;102230.00;;;;4989181;28;20241;-46
2022/03/20 01:20:51;;;;;;;5.90;5.40;;;17.40;45.50;18.30;102222.00;;;;4989214;28;20184;-47
2022/03/20 01:23:16;;;;;;;5.90;5.40;;;17.40;45.50;18.30;102200.00;;;;4987839;28;20634;-44
2022/03/20 01:25:42;;;;;;;5.43;4.93;;;17.30;45.50;18.30;102217.00;;;;4989038;28;20180;-45
2022/03/20 01:28:08;;;;;;;5.47;5.00;;;17.40;45.60;18.30;102217.00;;;;4988331;28;20201;-46
2022/03/20 01:30:35;;;;;;;5.50;5.00;;;17.30;45.50;18.30;102211.00;;;;4988765;28;20193;-46
2022/03/20 01:33:01;;;;;;;5.70;5.20;;;17.30;45.60;18.20;102207.00;;;;4988726;28;20577;-45
2022/03/20 01:35:27;;;;;;;5.60;5.10;;;17.30;45.70;18.20;102193.00;;;;4988940;28;20169;-45
2022/03/20 01:37:53;;;;;;;5.73;5.23;;;17.30;45.70;18.20;102192.00;;;;4988709;28;20203;-46
2022/03/20 01:40:19;;;;;;;5.60;5.10;;;17.30;45.80;18.20;102185.00;;;;4988479;28;20184;-45
2022/03/20 01:42:44;;;;;;;5.70;5.07;;;17.20;45.70;18.20;102185.00;;;;4988433;28;20790;-46
2022/03/20 01:45:14;;;;;;;4.97;4.57;;;17.30;45.80;18.20;102183.00;;;;4989154;28;20549;-45
2022/03/20 01:47:40;;;;;;;5.40;5.00;;;17.20;45.70;18.20;102178.00;;;;4988544;28;20192;-46
2022/03/20 01:50:06;;;;;;;5.30;4.90;;;17.20;45.70;18.10;102166.00;;;;4988340;28;20212;-46
2022/03/20 01:52:32;;;;;;;5.60;5.10;;;17.20;45.80;18.10;102170.00;;;;4987490;28;20176;-45
2022/03/20 01:54:58;;;;;;;5.73;5.23;;;17.20;45.80;18.10;102158.00;;;;4988195;28;20206;-46
2022/03/20 01:57:24;;;;;;;5.60;5.10;;;17.20;45.90;18.10;102161.00;;;;4988510;28;20188;-45
2022/03/20 01:59:50;;;;;;;5.40;5.00;;;17.10;45.80;18.10;102156.00;;;;4989215;28;20316;-45
2022/03/20 02:02:16;;;;;;;5.33;4.83;;;17.10;45.80;18.10;102151.00;;;;4988234;28;20235;-46
2022/03/20 02:04:42;;;;;;;5.40;4.77;;;17.10;46.00;18.10;102154.00;;;;4988427;28;20245;-45
2022/03/20 02:07:08;;;;;;;5.30;4.90;;;17.10;46.00;18.00;102135.00;;;;4987791;28;20203;-45
2022/03/20 02:09:37;;;;;;;5.20;4.80;;;17.10;45.90;18.00;102135.00;;;;4990216;28;20702;-46
2022/03/20 02:12:03;;;;;;;5.50;5.00;;;17.10;45.90;17.90;102122.00;;;;4990759;28;20180;-47
2022/03/20 02:14:30;;;;;;;5.83;5.33;;;17.10;46.00;17.90;102133.00;;;;4994365;28;20311;-48
2022/03/20 02:16:56;;;;;;;5.10;4.70;;;17.00;45.90;17.90;102117.00;;;;4993213;28;20735;-45
2022/03/20 02:19:22;;;;;;;5.80;5.10;;;17.00;45.90;17.90;102085.00;;;;4987861;28;20180;-46
2022/03/20 02:21:48;;;;;;;5.00;4.60;;;17.00;46.00;17.90;102117.00;;;;4986457;28;20195;-45
2022/03/20 02:24:33;;;;;;;5.53;5.10;;;17.00;46.10;17.90;102108.00;;;;4988058;28;20682;-45
2022/03/20 02:27:18;;;;;;;5.33;4.93;;;16.90;46.00;17.80;102110.00;;;;4987368;28;20201;-45
2022/03/20 02:30:12;;;;;;;5.00;4.60;;;16.90;46.00;17.80;102110.00;;;;4990212;28;20192;-46
2022/03/20 02:32:41;;;;;;;5.53;5.03;;;16.90;46.20;17.80;102111.00;;;;4987315;28;20176;-46
2022/03/20 02:35:11;;;;;;;5.50;4.87;;;16.90;46.20;17.60;102101.00;;;;4988180;28;20173;-46
2022/03/20 02:37:42;;;;;;;5.50;5.00;;;16.90;46.20;17.80;102117.00;;;;4987602;28;20192;-45
2022/03/20 02:40:08;;;;;;;5.33;4.83;;;16.80;46.20;17.70;102100.00;;;;4987058;28;20515;-46
2022/03/20 02:42:35;;;;;;;5.17;4.57;;;16.80;46.20;17.70;102107.00;;;;4987071;28;20192;-46
2022/03/20 02:45:07;;;;;;;5.10;4.70;;;16.80;46.30;17.70;102104.00;;;;4988201;28;20196;-46
2022/03/20 02:47:38;;;;;;;5.47;5.03;;;16.80;46.40;17.70;102111.00;;;;4987663;28;20216;-45
2022/03/20 02:50:13;;;;;;;5.20;4.80;;;16.70;46.40;17.70;102099.00;;;;4989156;28;20204;-47
2022/03/20 02:52:56;;;;;;;5.50;5.00;;;16.70;46.40;17.70;102103.00;;;;4987528;28;20167;-46
2022/03/20 02:55:30;;;;;;;5.50;5.00;;;16.70;46.40;17.60;102085.00;;;;4987475;28;20657;-45
2022/03/20 02:57:58;;;;;;;5.70;5.20;;;16.70;46.50;17.60;102078.00;;;;4987884;28;20539;-47
2022/03/20 03:00:28;;;;;;;5.43;4.93;;;16.70;46.60;17.60;102081.00;;;;4987427;28;20836;-44
2022/03/20 03:02:55;;;;;;;5.53;5.03;;;16.60;46.50;17.60;102078.00;;;;4987112;28;20191;-45
2022/03/20 03:05:23;;;;;;;5.50;5.10;;;16.60;46.60;17.60;102074.00;;;;4987361;28;20195;-45
2022/03/20 03:13:34;;;;;;;5.23;4.83;;;16.60;46.70;17.60;102076.00;;;;4987287;28;20182;-45
2022/03/20 03:16:02;;;;;;;5.60;5.10;;;16.60;46.70;17.60;102076.00;;;;4987244;28;20640;-45
2022/03/20 03:18:28;;;;;;;5.30;4.90;;;16.60;46.80;17.60;102056.00;;;;4987273;28;20192;-44
2022/03/20 03:20:54;;;;;;;5.27;4.87;;;16.60;46.80;17.60;102051.00;;;;4986749;28;20180;-45
2022/03/20 03:23:21;;;;;;;5.20;4.80;;;16.60;46.80;17.60;102063.00;;;;4987084;28;20168;-46
2022/03/20 03:25:47;;;;;;;5.57;5.07;;;16.50;46.70;17.60;102054.00;;;;4987265;28;20764;-46
2022/03/20 03:28:12;;;;;;;5.77;5.17;;;16.50;46.70;17.60;102050.00;;;;4990242;28;20192;-46
2022/03/20 03:30:40;;;;;;;5.40;5.00;;;16.50;46.70;17.60;102048.00;;;;4991079;28;20216;-46
2022/03/20 03:33:06;;;;;;;6.10;5.50;;;16.60;46.90;17.60;102042.00;;;;4989336;28;20180;-47
2022/03/20 03:35:46;;;;;;;6.07;5.57;;;16.50;46.80;17.60;102039.00;;;;4991453;28;20227;-45
2022/03/20 03:38:17;;;;;;;5.67;5.17;;;16.50;46.70;17.60;102041.00;;;;4991408;28;20188;-44
2022/03/20 03:40:44;;;;;;;5.63;5.13;;;16.50;46.80;17.50;102035.00;;;;4990811;28;20177;-46
2022/03/20 03:43:10;;;;;;;5.50;5.10;;;16.50;46.80;17.50;102039.00;;;;4991597;28;20676;-45
2022/03/20 03:45:38;;;;;;;5.50;5.00;;;16.50;46.70;17.50;102030.00;;;;4990743;28;20822;-45
2022/03/20 03:48:05;;;;;;;5.90;5.40;;;16.50;46.80;17.50;102015.00;;;;4990780;28;20961;-45
2022/03/20 03:50:31;;;;;;;5.90;5.40;;;16.40;46.70;17.50;102035.00;;;;4990821;28;20227;-45
2022/03/20 03:52:56;;;;;;;5.33;4.93;;;16.50;46.80;17.50;102018.00;;;;4990991;28;20288;-45
2022/03/20 03:55:22;;;;;;;5.70;5.20;;;16.40;46.70;17.50;102022.00;;;;4990862;28;20184;-45
2022/03/20 03:57:49;;;;;;;5.50;5.00;;;16.40;46.60;17.50;102018.00;;;;4990143;28;20199;-45
2022/03/20 04:00:19;;;;;;;5.60;5.10;;;16.40;46.70;17.50;102008.00;;;;4990575;28;20184;-44
2022/03/20 04:02:45;;;;;;;5.63;5.13;;;16.40;46.70;17.50;102012.00;;;;4990679;28;20183;-43
2022/03/20 04:05:11;;;;;;;5.50;5.00;;;16.40;47.10;17.50;102016.00;;;;4989166;28;20172;-46
2022/03/20 04:07:37;;;;;;;5.60;5.10;;;16.40;47.50;17.50;102002.00;;;;4990566;28;20207;-46
2022/03/20 04:10:05;;;;;;;5.63;5.13;;;16.40;47.00;17.40;102011.00;;;;4989011;28;20228;-45
2022/03/20 04:12:31;;;;;;;5.73;5.23;;;16.40;47.00;17.40;101998.00;;;;4990308;28;20173;-46
2022/03/20 04:15:02;;;;;;;5.67;5.17;;;16.40;47.00;17.40;101998.00;;;;4989128;28;20259;-46
2022/03/20 04:17:31;;;;;;;5.53;5.03;;;16.30;47.10;17.40;102004.00;;;;4990354;28;20196;-47
2022/03/20 04:20:00;;;;;;;5.30;4.80;;;16.30;47.20;17.40;101995.00;;;;4988992;28;20259;-48
2022/03/20 04:22:27;;;;;;;5.83;5.27;;;16.40;47.40;17.30;102007.00;;;;4989917;28;20184;-46
2022/03/20 04:24:53;;;;;;;5.93;5.33;;;16.40;47.20;17.40;101991.00;;;;4990059;28;20183;-46
2022/03/20 04:27:18;;;;;;;8.60;5.00;;;16.30;46.90;17.30;101997.00;;;;4989901;28;20196;-47
2022/03/20 04:29:44;;;;;;;5.53;5.03;;;16.30;46.90;17.30;102002.00;;;;4990383;28;20200;-47
2022/03/20 04:32:11;;;;;;;5.90;5.40;;;16.30;46.90;17.30;101997.00;;;;4990389;28;20319;-46
2022/03/20 04:34:38;;;;;;;6.33;5.47;;;16.30;46.80;17.30;101996.00;;;;4990325;28;20184;-46
2022/03/20 04:37:05;;;;;;;6.77;5.30;;;16.20;46.80;17.30;101977.00;;;;4988697;28;20195;-45
2022/03/20 04:39:32;;;;;;;7.50;5.10;;;16.30;46.70;17.30;101990.00;;;;4989569;28;20180;-45
2022/03/20 04:41:58;;;;;;;7.73;5.87;;;16.20;46.70;17.30;101986.00;;;;4989723;28;20279;-45
2022/03/20 04:44:24;;;;;;;6.80;5.10;;;16.20;46.60;17.30;101974.00;;;;4989803;28;20180;-44
2022/03/20 04:46:50;;;;;;;5.47;4.93;;;16.20;47.30;17.30;101979.00;;;;4994023;28;20227;-45
2022/03/20 05:00:12;;;;;;;7.00;5.23;;;16.10;46.50;17.20;101965.00;;;;4987019;28;20190;-47
2022/03/20 05:02:39;;;;;;;7.17;5.60;;;16.10;46.50;17.20;101962.00;;;;4989236;28;20196;-45
2022/03/20 05:05:05;;;;;;;5.33;4.90;;;16.10;46.50;17.10;101945.00;;;;5003950;28;20259;-46
2022/03/20 05:07:32;;;;;;;6.17;5.57;;;16.10;46.60;17.10;101959.00;;;;4989313;28;20192;-47
2022/03/20 05:15:30;;;;;;;7.53;5.70;;;16.10;46.60;17.10;101966.00;;;;4989973;28;20643;-46
2022/03/20 05:17:56;;;;;;;5.50;5.00;;;16.00;46.50;17.10;101968.00;;;;5006311;28;20200;-46
2022/03/20 05:20:23;;;;;;;6.57;5.03;;;16.00;46.60;17.00;101956.00;;;;4989811;28;20176;-45
2022/03/20 05:22:50;;;;;;;7.33;5.67;;;16.00;47.60;17.00;101957.00;;;;4989680;28;20788;-46
2022/03/20 05:25:16;;;;;;;6.30;5.27;;;16.00;46.90;17.00;101950.00;;;;4989129;28;20188;-48
2022/03/20 05:27:42;;;;;;;6.10;5.50;;;16.00;46.90;17.00;101956.00;;;;5003715;28;20326;-46
2022/03/20 05:30:08;;;;;;;5.87;5.37;;;16.00;46.90;17.00;101945.00;;;;4987968;28;20545;-47
2022/03/20 05:32:35;;;;;;;6.43;5.67;;;16.00;46.90;17.00;101924.00;;;;5003808;28;20226;-47
2022/03/20 05:35:06;;;;;;;7.00;5.97;;;15.90;46.80;17.00;101931.00;;;;4987441;28;20650;-47
2022/03/20 05:37:32;;;;;;;6.27;5.40;;;15.90;46.90;17.00;101925.00;;;;4988453;28;20206;-46
2022/03/20 05:39:58;;;;;;;5.97;5.43;;;16.00;47.60;17.00;101917.00;;;;4987939;28;20259;-48
2022/03/20 05:42:24;;;;;;;7.93;5.93;;;15.90;46.80;17.00;101913.00;;;;4988361;28;20552;-47
2022/03/20 05:44:50;;;;;;;8.37;6.07;;;15.90;46.90;17.00;101926.00;;;;4988326;28;20218;-46
2022/03/20 05:47:15;;;;;;;7.70;5.90;;;15.90;46.80;17.00;101938.00;;;;4988194;28;20568;-46
2022/03/20 05:49:41;;;;;;;6.57;5.87;;;15.80;46.70;16.90;101953.00;;;;4987171;28;20673;-47
2022/03/20 05:52:07;;;;;;;7.20;6.50;;;15.80;46.70;16.90;101946.00;;;;5003037;28;20175;-46
2022/03/20 05:54:33;;;;;;;8.83;6.93;;;15.80;46.40;16.90;101954.00;;;;4988325;28;20605;-47
2022/03/20 05:59:44;;;;;;;10.03;6.57;;;15.80;46.30;16.80;101952.00;;;;4987733;28;20686;-45
2022/03/20 06:02:10;;;;;;;7.43;6.73;;;15.80;46.10;16.90;101964.00;;;;4988011;28;20352;-46
2022/03/20 06:04:37;;;;;;;7.80;7.00;;;16.00;46.10;16.90;101962.00;;;;4988399;28;20247;-45
2022/03/20 06:07:03;;;;;;;9.50;6.70;;;16.20;45.90;17.00;101959.00;;;;4987862;28;20196;-47
2022/03/20 06:09:29;;;;;;;7.50;6.63;;;16.50;45.70;17.10;101960.00;;;;5002680;28;20555;-47
2022/03/20 06:11:55;;;;;;;8.90;6.93;;;16.80;45.40;17.20;101957.00;;;;5002574;28;20179;-49
2022/03/20 06:14:21;;;;;;;7.93;6.37;;;17.00;45.10;17.40;101965.00;;;;4987505;28;20760;-47
2022/03/20 06:16:48;;;;;;;7.20;6.57;;;17.40;44.80;17.50;101975.00;;;;4988630;28;20184;-48
2022/03/20 06:19:15;;;;;;;7.40;6.60;;;17.70;44.50;17.70;101973.00;;;;4987761;28;20177;-46
2022/03/20 06:21:42;;;;;;;7.50;6.30;;;18.00;44.20;17.90;101970.00;;;;4987679;28;20168;-49
2022/03/20 06:24:07;;;;;;;7.27;6.60;;;18.20;43.70;18.10;101966.00;;;;4987239;28;20725;-47
2022/03/20 06:26:34;;;;;;;7.33;6.17;;;18.40;43.70;18.30;101965.00;;;;4987258;28;20192;-48
2022/03/20 06:29:00;;;;;;;8.27;6.67;;;18.50;43.70;18.40;101970.00;;;;4987928;28;20956;-48
2022/03/20 06:31:26;;;;;;;6.63;6.03;;;18.70;43.70;18.50;101972.00;;;;4990131;28;20288;-47
2022/03/20 06:33:51;;;;;;;7.03;6.43;;;18.70;43.50;18.60;101967.00;;;;4993033;28;20165;-47
2022/03/20 06:36:17;;;;;;;7.73;6.47;;;18.80;43.70;18.80;101968.00;;;;4990645;28;20176;-47
2022/03/20 06:38:43;;;;;;;6.60;6.00;;;18.90;43.70;18.90;101959.00;;;;4987501;28;20175;-45
2022/03/20 06:41:09;;;;;;;6.93;6.30;;;19.00;43.60;18.80;101961.00;;;;4986840;28;20183;-48
2022/03/20 06:43:35;;;;;;;6.73;6.03;;;19.10;43.70;19.00;101961.00;;;;4990727;28;20233;-47
2022/03/20 06:46:01;;;;;;;7.37;6.67;;;19.10;43.90;19.10;101961.00;;;;4988534;28;20231;-47
2022/03/20 06:48:27;;;;;;;6.80;6.10;;;19.10;44.10;19.10;101948.00;;;;4987383;28;20202;-46
2022/03/20 06:50:53;;;;;;;6.57;5.97;;;19.00;44.20;19.20;101948.00;;;;4986726;28;20258;-45
2022/03/20 06:53:19;;;;;;;6.40;5.80;;;19.00;44.40;19.20;101952.00;;;;4987687;28;20169;-46
2022/03/20 06:55:45;;;;;;;6.93;6.27;;;19.00;44.60;19.20;101958.00;;;;4987308;28;20785;-47
2022/03/20 06:58:11;;;;;;;7.07;6.47;;;19.00;44.80;19.20;101900.00;;;;4987079;28;20228;-46
2022/03/20 07:00:37;;;;;;;6.80;6.20;;;18.90;44.90;19.20;101948.00;;;;4987154;28;20178;-47
2022/03/20 07:03:06;;;;;;;6.37;5.80;;;18.90;44.90;19.20;101947.00;;;;4990990;28;20179;-47
2022/03/20 07:05:32;;;;;;;6.60;6.00;;;18.80;45.10;19.20;101930.00;;;;4991225;28;20559;-48
2022/03/20 07:07:59;;;;;;;6.40;5.87;;;18.80;45.20;19.20;101920.00;;;;4991128;28;20199;-46
2022/03/20 07:10:25;;;;;;;6.47;5.93;;;18.70;45.40;19.20;101914.00;;;;4989994;28;20682;-47
2022/03/20 07:12:50;;;;;;;6.73;6.13;;;18.70;45.60;19.20;101922.00;;;;4991788;28;20180;-48
2022/03/20 07:15:19;;;;;;;6.97;6.37;;;18.60;45.50;19.20;101905.00;;;;4989963;28;20673;-47
2022/03/20 07:17:47;;;;;;;7.40;6.70;;;18.60;45.70;19.10;101911.00;;;;4991369;28;20228;-47
2022/03/20 07:20:15;;;;;;;6.40;5.90;;;18.60;45.80;19.10;101913.00;;;;4989616;28;20208;-46
2022/03/20 07:22:41;;;;;;;6.67;6.07;;;18.50;45.70;19.10;101920.00;;;;4991815;28;20182;-48
2022/03/20 07:30:39;;;;;;;6.73;6.13;;;18.40;46.00;19.00;101909.00;;;;4990531;28;20229;-48
2022/03/20 07:33:05;;;;;;;6.80;6.20;;;18.30;46.00;19.00;101861.00;;;;4990943;28;20195;-47
2022/03/20 07:35:30;;;;;;;7.00;6.30;;;18.30;46.10;18.90;101888.00;;;;4990563;28;20172;-47
2022/03/20 07:37:56;;;;;;;6.97;6.37;;;18.30;46.10;18.90;101891.00;;;;4990457;28;20193;-48
2022/03/20 07:40:22;;;;;;;7.07;6.47;;;18.20;46.10;18.90;101891.00;;;;4989661;28;20188;-46
2022/03/20 07:42:48;;;;;;;6.50;5.93;;;18.20;46.20;18.90;101891.00;;;;4990747;28;20179;-47
2022/03/20 07:45:13;;;;;;;7.33;6.73;;;18.20;46.20;18.90;101887.00;;;;4990498;28;20178;-47
2022/03/20 07:47:39;;;;;;;7.30;6.60;;;18.20;46.30;18.80;101865.00;;;;4988977;28;20200;-49
2022/03/20 07:50:08;;;;;;;7.30;6.70;;;18.10;46.20;18.80;101872.00;;;;4989799;28;20207;-47
2022/03/20 07:52:35;;;;;;;7.13;6.43;;;18.10;46.30;18.80;101869.00;;;;4990355;28;20613;-48
2022/03/20 07:55:01;;;;;;;7.73;7.03;;;18.00;46.40;18.80;101869.00;;;;4990742;28;20420;-44
2022/03/20 07:57:29;;;;;;;7.13;6.53;;;18.00;46.40;18.70;101863.00;;;;4991154;28;20273;-47
2022/03/20 07:59:55;;;;;;;7.40;6.70;;;18.10;46.30;18.80;101860.00;;;;4990286;28;20482;-48
2022/03/20 08:02:20;;;;;;;7.50;6.90;;;18.20;45.90;18.80;101860.00;;;;4990757;28;20550;-48
2022/03/20 08:04:46;;;;;;;7.53;6.83;;;18.50;45.50;19.00;101862.00;;;;4988658;28;20192;-46
2022/03/20 08:07:12;;;;;;;7.30;6.47;;;18.80;45.00;19.10;101850.00;;;;4988985;28;20195;-46
2022/03/20 08:09:38;;;;;;;7.60;6.90;;;19.10;44.70;19.30;101848.00;;;;4990280;28;20630;-47
2022/03/20 08:12:06;;;;;;;7.40;6.70;;;19.40;44.30;19.40;101841.00;;;;4990464;28;20168;-47
2022/03/20 08:14:31;;;;;;;7.73;7.03;;;19.50;44.20;19.50;101828.00;;;;4989359;28;20406;-47
2022/03/20 08:16:57;;;;;;;7.60;6.90;;;19.50;44.10;19.60;101776.00;;;;4989887;28;20195;-45
2022/03/20 08:19:24;;;;;;;7.67;6.90;;;19.60;44.30;19.60;101831.00;;;;4990149;28;20444;-47
2022/03/20 08:21:51;;;;;;;9.83;7.03;;;19.60;44.40;19.70;101821.00;;;;4989823;28;20202;-47
2022/03/20 08:24:17;;;;;;;7.73;6.93;;;19.50;44.60;19.70;101828.00;;;;4988625;28;20539;-47
2022/03/20 08:26:43;;;;;;;7.10;6.40;;;19.60;44.80;19.80;101816.00;;;;4989401;28;20203;-47
2022/03/20 08:29:11;;;;;;;8.10;7.30;;;19.50;44.80;19.80;101827.00;;;;4990772;28;20589;-48
2022/03/20 08:31:37;;;;;;;7.70;7.00;;;19.50;45.00;19.80;101832.00;;;;4795209;28;20204;-47
2022/03/20 08:34:04;;;;;;;14.60;6.77;;;19.50;45.30;19.80;101856.00;;;;5010576;28;20616;-47
2022/03/20 08:36:30;;;;;;;14.97;7.17;;;19.50;45.60;19.80;101864.00;;;;5000502;28;20220;-48
2022/03/20 08:38:55;;;;;;;12.00;7.03;;;19.50;45.90;19.80;101876.00;;;;4990052;28;20647;-46
2022/03/20 08:41:21;;;;;;;14.37;7.70;;;19.40;45.80;19.80;101877.00;;;;4989430;28;20653;-48
2022/03/20 08:43:47;;;;;;;12.37;7.70;;;19.30;45.70;19.80;101862.00;;;;4989294;28;20192;-46
2022/03/20 08:46:14;;;;;;;9.10;7.83;;;19.30;45.50;19.80;101861.00;;;;4989616;28;20247;-44
2022/03/20 08:48:40;;;;;;;9.47;7.90;;;19.30;45.40;19.80;101875.00;;;;4992537;28;20230;-48
2022/03/20 08:51:06;;;;;;;8.77;7.80;;;19.20;45.30;19.80;101877.00;;;;4983486;28;20207;-43
2022/03/20 08:53:33;;;;;;;9.10;8.00;;;19.20;45.10;19.80;101864.00;;;;4989319;28;20639;-45
2022/03/20 08:55:59;;;;;;;10.20;8.37;;;19.10;45.10;19.70;101854.00;;;;4990781;28;20176;-47
2022/03/20 08:58:24;;;;;;;10.33;9.00;;;19.10;45.10;19.70;101870.00;;;;4990610;28;20192;-48
2022/03/20 09:00:50;;;;;;;9.50;8.60;;;19.10;45.00;19.70;101872.00;;;;4990369;28;20179;-46
2022/03/20 09:03:16;;;;;;;9.77;8.70;;;19.00;44.80;19.70;101875.00;;;;4990676;28;20160;-46
2022/03/20 09:05:42;;;;;;;9.70;8.70;;;19.00;44.70;19.60;101872.00;;;;4990339;28;20183;-44
2022/03/20 09:08:07;;;;;;;9.70;8.80;;;18.90;44.50;19.60;101871.00;;;;4989900;28;20207;-45
2022/03/20 09:10:34;;;;;;;10.03;9.03;;;18.90;44.50;19.60;101855.00;;;;4989929;28;20214;-47
2022/03/20 09:13:00;;;;;;;9.67;8.77;;;18.90;44.50;19.60;101858.00;;;;4990425;28;20176;-45
2022/03/20 09:15:27;;;;;;;9.77;8.77;;;18.80;44.50;19.60;101850.00;;;;4989259;28;20626;-46
2022/03/20 09:20:39;;;;;;;9.50;8.60;;;18.80;44.90;19.50;101851.00;;;;4989464;28;20178;-46
2022/03/20 09:23:06;;;;;;;9.50;8.70;;;18.80;45.00;19.50;101842.00;;;;4988616;28;20176;-46
2022/03/20 09:25:32;;;;;;;8.90;8.00;;;18.80;45.60;19.50;101844.00;;;;4999270;28;20588;-45
2022/03/20 09:27:58;;;;;;;8.70;7.53;;;18.70;45.50;19.50;101835.00;;;;5009025;28;20249;-45
2022/03/20 09:30:24;;;;;;;12.20;8.77;;;18.70;45.60;19.40;101831.00;;;;4933952;28;23070;-45
2022/03/20 09:32:50;;;;;;;10.83;8.13;;;18.70;45.70;19.40;101828.00;;;;4970314;28;20159;-49
2022/03/20 09:35:16;;;;;;;9.00;8.10;;;18.60;45.80;19.40;101831.00;;;;4970305;28;20174;-44
2022/03/20 09:37:42;;;;;;;8.70;7.80;;;18.70;46.00;19.40;101833.00;;;;4975995;28;20232;-45
2022/03/20 09:40:09;;;;;;;13.07;8.00;;;18.60;45.90;19.40;101839.00;;;;4989224;28;20191;-47
2022/03/20 09:42:36;;;;;;;11.73;7.70;;;18.60;46.20;19.30;101833.00;;;;4989877;28;20221;-43
2022/03/20 09:45:06;;;;;;;13.50;8.30;;;18.50;46.50;19.30;101831.00;;;;4988777;28;20242;-46
2022/03/20 09:47:40;;;;;;;9.40;8.10;;;18.50;46.80;19.30;101831.00;;;;4993737;28;20215;-46
2022/03/20 09:50:07;;;;;;;8.37;7.50;;;18.50;46.80;19.30;101822.00;;;;4995944;28;20215;-49
2022/03/20 09:52:34;;;;;;;12.43;7.80;;;18.50;46.80;19.30;101823.00;;;;4988292;28;20582;-47
2022/03/20 09:55:00;;;;;;;9.13;7.30;;;18.50;47.10;19.20;101828.00;;;;4986646;28;20206;-47
2022/03/20 09:57:28;;;;;;;8.73;7.40;;;18.50;47.50;19.20;101829.00;;;;4987888;28;20190;-47
2022/03/20 09:59:55;;;;;;;9.57;7.60;;;18.50;47.50;19.20;101823.00;;;;4967751;28;20666;-47
2022/03/20 10:02:20;;;;;;;8.37;7.37;;;18.50;47.70;19.20;101836.00;;;;4970029;28;20605;-48
2022/03/20 10:05:05;;;;;;;10.77;7.40;;;18.50;47.70;19.20;101830.00;;;;4937103;28;20192;-47
2022/03/20 10:07:39;;;;;;;8.53;7.70;;;18.50;47.80;19.20;101828.00;;;;4970265;28;20196;-47
2022/03/20 10:10:33;;;;;;;8.00;7.30;;;18.50;47.90;19.20;101819.00;;;;4969682;28;20249;-46
2022/03/20 10:13:00;;;;;;;8.30;7.50;;;18.50;47.80;19.20;101841.00;;;;4969869;28;20158;-45
2022/03/20 10:15:31;;;;;;;8.27;7.47;;;18.50;47.80;19.20;101823.00;;;;4970335;28;20597;-46
2022/03/20 10:18:09;;;;;;;8.50;7.57;;;18.50;47.80;19.20;101826.00;;;;4970195;28;20532;-47
2022/03/20 10:20:48;;;;;;;7.57;6.87;;;18.60;47.50;19.20;101817.00;;;;4977960;28;20204;-47
2022/03/20 10:23:41;;;;;;;11.17;7.47;;;18.50;47.10;19.20;101818.00;;;;4993746;28;20166;-46
2022/03/20 10:26:16;;;;;;;7.90;7.10;;;18.60;48.60;19.10;101811.00;;;;4991015;28;20632;-47
2022/03/20 10:28:48;;;;;;;8.33;7.53;;;18.50;48.50;19.10;101812.00;;;;4989329;28;20182;-47
2022/03/20 10:31:20;;;;;;;9.10;8.20;;;18.50;48.90;19.10;101823.00;;;;4988918;28;20247;-44
2022/03/20 10:34:02;;;;;;;8.80;7.37;;;18.50;49.40;19.10;101806.00;;;;4989303;28;20233;-46
2022/03/20 10:36:28;;;;;;;8.00;7.20;;;18.50;49.00;19.10;101817.00;;;;4989152;28;20236;-45
2022/03/20 10:38:55;;;;;;;14.93;7.20;;;18.50;49.00;19.10;101809.00;;;;4989260;28;20303;-47
2022/03/20 10:41:26;;;;;;;8.13;7.10;;;18.50;48.90;19.10;101806.00;;;;4989016;28;20186;-47
2022/03/20 10:43:56;;;;;;;9.97;7.97;;;18.50;49.00;19.10;101799.00;;;;4989010;28;20251;-46
2022/03/20 10:46:30;;;;;;;9.30;7.60;;;18.60;48.80;19.20;101812.00;;;;4988764;28;20174;-46
2022/03/20 10:48:58;;;;;;;9.43;7.47;;;18.60;48.80;19.20;101801.00;;;;4989602;28;20177;-46
2022/03/20 10:51:41;;;;;;;8.50;7.60;;;18.60;48.60;19.20;101813.00;;;;4989186;28;20286;-49
2022/03/20 10:54:11;;;;;;;9.57;7.47;;;18.60;49.10;19.20;101809.00;;;;4989180;28;20246;-46
2022/03/20 10:56:50;;;;;;;12.80;7.80;;;18.70;49.20;19.20;101800.00;;;;4989050;28;20198;-46
2022/03/20 10:59:16;;;;;;;8.30;7.40;;;18.70;48.80;19.20;101801.00;;;;4988941;28;20179;-48
2022/03/20 11:01:43;;;;;;;8.23;7.53;;;18.70;48.40;19.20;101810.00;;;;4987150;28;20182;-47
2022/03/20 11:04:11;;;;;;;8.00;7.20;;;18.60;48.00;19.20;101811.00;;;;4987249;28;20772;-49
2022/03/20 11:06:37;;;;;;;8.23;7.50;;;18.60;47.80;19.20;101822.00;;;;4989076;28;20660;-46
2022/03/20 11:09:04;;;;;;;8.57;7.37;;;18.60;47.60;19.20;101814.00;;;;4989331;28;20217;-45
2022/03/20 11:11:34;;;;;;;8.50;7.60;;;18.60;47.50;19.20;101800.00;;;;4986964;28;20209;-47
2022/03/20 11:14:00;;;;;;;8.80;7.60;;;18.60;47.40;19.20;101805.00;;;;4988521;28;20283;-48
2022/03/20 11:16:26;;;;;;;7.93;7.17;;;18.60;47.30;19.20;101802.00;;;;4986821;28;20172;-48
2022/03/20 11:18:52;;;;;;;9.73;7.50;;;18.60;47.30;19.20;101791.00;;;;4991455;28;20172;-46
2022/03/20 11:21:23;;;;;;;8.67;7.70;;;18.60;47.10;19.20;101818.00;;;;4987675;28;20643;-47